Time;durP1;ratioP1;P1;durP2;ratioP2;P2;SDS_P1;SDS_P2;PMS_P1;PMS_P2;Temp;Humidity;BMP_temperature;BMP_pressure;BME280_temperature;BME280_humidity;BME280_pressure;Samples;Min_cycle;Max_cycle;Signal;HPM_P1;HPM_P2
2023/03/15 00:00:25;;;;;;;0.67;0.67;;;;;;;5.93;67.24;98605.56;5023368;28;20351;-65
2023/03/15 00:02:51;;;;;;;0.60;0.60;;;;;;;5.90;67.46;98606.47;5028530;28;20202;-66
2023/03/15 00:05:18;;;;;;;0.60;0.60;;;;;;;5.89;67.96;98594.63;5025816;28;20212;-65
2023/03/15 00:07:45;;;;;;;0.57;0.57;;;;;;;5.87;67.99;98595.53;5026550;28;20550;-65
2023/03/15 00:10:12;;;;;;;0.73;0.73;;;;;;;5.85;67.92;98595.53;5026002;28;20561;-65
2023/03/15 00:12:41;;;;;;;0.73;0.73;;;;;;;5.81;68.04;98591.41;5023007;28;20209;-66
2023/03/15 00:15:08;;;;;;;0.70;0.70;;;;;;;5.77;68.35;98589.81;5026064;28;20628;-65
2023/03/15 00:17:36;;;;;;;0.60;0.60;;;;;;;5.74;68.51;98584.81;5023535;28;20213;-65
2023/03/15 00:20:05;;;;;;;0.70;0.70;;;;;;;5.75;68.42;98591.56;5027346;28;20212;-65
2023/03/15 00:22:32;;;;;;;0.50;0.50;;;;;;;5.65;68.34;98570.59;5027508;28;20247;-66
2023/03/15 00:24:58;;;;;;;0.67;0.67;;;;;;;5.68;68.20;98578.16;5027653;28;20200;-65
2023/03/15 00:27:25;;;;;;;0.80;0.80;;;;;;;5.66;68.40;98584.13;5025623;28;20237;-66
2023/03/15 00:29:52;;;;;;;0.83;0.83;;;;;;;5.62;68.77;98582.56;5021034;28;20197;-66
2023/03/15 00:32:19;;;;;;;1.03;1.03;;;;;;;5.59;68.92;98580.09;5028116;28;20225;-66
2023/03/15 00:34:48;;;;;;;0.77;0.77;;;;;;;5.61;69.09;98578.34;5029203;28;21651;-65
2023/03/15 00:37:15;;;;;;;0.70;0.70;;;;;;;5.59;69.34;98573.28;5027925;28;20220;-65
2023/03/15 00:39:44;;;;;;;0.60;0.60;;;;;;;5.50;70.66;98559.94;5022091;28;20577;-65
2023/03/15 00:42:14;;;;;;;0.90;0.90;;;;;;;5.40;71.71;98544.06;5027995;28;20212;-65
2023/03/15 00:44:41;;;;;;;0.70;0.70;;;;;;;5.41;72.04;98550.81;5028504;28;20205;-65
2023/03/15 00:47:08;;;;;;;0.60;0.60;;;;;;;5.51;72.20;98561.63;5027621;28;20554;-65
2023/03/15 00:49:35;;;;;;;0.60;0.60;;;;;;;5.52;73.64;98564.13;5024483;28;20515;-65
2023/03/15 00:52:03;;;;;;;1.10;1.10;;;;;;;5.45;73.20;98561.75;5029304;28;20691;-65
2023/03/15 00:54:32;;;;;;;0.80;0.80;;;;;;;5.41;72.67;98567.78;5027087;28;20263;-65
2023/03/15 00:56:59;;;;;;;0.77;0.77;;;;;;;5.36;72.90;98567.06;5028274;28;20278;-65
2023/03/15 00:59:25;;;;;;;0.50;0.50;;;;;;;5.37;72.20;98568.72;5028042;28;20209;-65
2023/03/15 01:01:52;;;;;;;0.70;0.70;;;;;;;5.30;72.25;98552.75;5028048;28;20201;-65
2023/03/15 01:04:19;;;;;;;1.00;1.00;;;;;;;5.28;72.05;98565.53;5027409;28;20255;-65
2023/03/15 01:06:46;;;;;;;0.80;0.80;;;;;;;5.23;71.93;98553.81;5028194;28;20292;-65
2023/03/15 01:09:14;;;;;;;0.67;0.67;;;;;;;5.23;71.72;98546.19;5027256;28;20201;-65
2023/03/15 01:11:41;;;;;;;0.70;0.70;;;;;;;5.26;71.45;98556.28;5025604;28;20669;-65
2023/03/15 01:14:10;;;;;;;0.60;0.60;;;;;;;5.22;71.65;98545.34;5028189;28;20197;-65
2023/03/15 01:16:37;;;;;;;0.83;0.83;;;;;;;5.20;71.44;98546.25;5028305;28;20224;-65
2023/03/15 01:19:04;;;;;;;0.70;0.70;;;;;;;5.21;71.57;98548.75;5028082;28;20194;-65
2023/03/15 01:21:31;;;;;;;0.60;0.60;;;;;;;5.20;71.52;98544.50;5027881;28;20213;-65
2023/03/15 01:23:58;;;;;;;0.60;0.60;;;;;;;5.16;71.78;98558.19;5026819;28;20220;-65
2023/03/15 01:26:26;;;;;;;0.57;0.57;;;;;;;5.10;72.12;98544.78;5027075;28;20655;-65
2023/03/15 01:28:53;;;;;;;0.70;0.70;;;;;;;5.08;72.02;98543.94;5027517;28;20669;-65
2023/03/15 01:31:22;;;;;;;0.60;0.60;;;;;;;5.07;71.91;98538.03;4983558;28;1138274;-65
2023/03/15 01:33:49;;;;;;;0.67;0.67;;;;;;;5.05;71.45;98542.31;5030720;28;20194;-65
2023/03/15 01:36:16;;;;;;;0.60;0.60;;;;;;;5.03;71.65;98533.91;5026344;28;20279;-65
2023/03/15 01:38:43;;;;;;;0.60;0.60;;;;;;;5.01;71.79;98530.56;5028387;28;20251;-65
2023/03/15 01:41:11;;;;;;;0.80;0.80;;;;;;;5.00;71.92;98533.97;5029430;28;20204;-65
2023/03/15 01:43:46;;;;;;;0.60;0.60;;;;;;;4.98;71.92;98528.09;5027974;28;20263;-65
2023/03/15 01:46:23;;;;;;;0.60;0.60;;;;;;;4.99;71.60;98532.31;5027914;28;20580;-65
2023/03/15 01:48:57;;;;;;;0.60;0.60;;;;;;;4.88;71.83;98518.19;5024266;28;20193;-66
2023/03/15 01:51:27;;;;;;;0.60;0.60;;;;;;;4.93;71.82;98522.28;5025542;28;20197;-65
2023/03/15 01:53:58;;;;;;;0.70;0.70;;;;;;;4.74;71.99;98499.00;5029773;28;20236;-65
2023/03/15 01:56:27;;;;;;;0.80;0.80;;;;;;;4.90;72.22;98531.66;5026431;28;20233;-65
2023/03/15 01:58:59;;;;;;;0.63;0.63;;;;;;;4.87;72.40;98527.50;5031008;28;20205;-65
2023/03/15 02:01:26;;;;;;;0.70;0.70;;;;;;;4.84;72.59;98525.03;5028857;28;20277;-65
2023/03/15 02:03:57;;;;;;;0.60;0.60;;;;;;;4.83;72.25;98523.34;5030408;28;20205;-65
2023/03/15 02:06:24;;;;;;;0.60;0.60;;;;;;;4.81;72.21;98525.09;5027420;28;20213;-65
2023/03/15 02:08:55;;;;;;;0.60;0.60;;;;;;;4.77;72.51;98526.00;5027956;28;20221;-65
2023/03/15 02:11:25;;;;;;;0.70;0.70;;;;;;;4.70;72.71;98515.16;5029158;28;20194;-65
2023/03/15 02:13:53;;;;;;;0.87;0.87;;;;;;;4.66;72.79;98522.84;5029392;28;20201;-66
2023/03/15 02:16:24;;;;;;;0.60;0.60;;;;;;;4.52;72.89;98519.78;5028306;28;20224;-65
2023/03/15 02:18:51;;;;;;;0.70;0.70;;;;;;;4.38;73.23;98506.50;5030150;28;20235;-65
2023/03/15 02:21:36;;;;;;;0.80;0.80;;;;;;;4.39;72.96;98524.25;5028107;28;20202;-65
2023/03/15 02:24:14;;;;;;;0.80;0.80;;;;;;;4.35;72.74;98509.13;5021572;28;20275;-65
2023/03/15 02:26:44;;;;;;;1.53;1.53;;;;;;;4.28;72.50;98510.09;5025927;28;20283;-65
2023/03/15 02:29:12;;;;;;;0.60;0.60;;;;;;;4.23;72.91;98503.41;5027289;28;20669;-65
2023/03/15 02:31:40;;;;;;;0.80;0.80;;;;;;;4.10;73.08;98496.88;5031675;28;20221;-65
2023/03/15 02:34:07;;;;;;;1.57;1.47;;;;;;;4.13;72.89;98507.00;5031523;28;20197;-65
2023/03/15 02:36:35;;;;;;;0.80;0.80;;;;;;;4.17;73.08;98508.59;5030615;28;20678;-65
2023/03/15 02:39:12;;;;;;;0.90;0.90;;;;;;;4.15;73.30;98510.31;5031119;28;20609;-65
2023/03/15 02:41:43;;;;;;;0.70;0.70;;;;;;;4.11;72.94;98502.78;5030541;28;20204;-65
2023/03/15 02:44:15;;;;;;;0.60;0.60;;;;;;;4.04;73.89;98496.19;5039009;28;20204;-65
2023/03/15 02:46:43;;;;;;;0.80;0.80;;;;;;;4.03;73.98;98497.88;5031019;28;20197;-65
2023/03/15 02:49:12;;;;;;;0.87;0.87;;;;;;;4.05;73.92;98502.91;5029369;28;21143;-65
2023/03/15 02:51:39;;;;;;;0.60;0.60;;;;;;;4.00;73.89;98503.00;5029150;28;20205;-65
2023/03/15 02:54:06;;;;;;;0.70;0.70;;;;;;;3.95;73.90;98497.19;5030310;28;20197;-65
2023/03/15 02:56:33;;;;;;;0.80;0.80;;;;;;;3.95;74.16;98487.03;5032441;28;20201;-65
2023/03/15 02:58:59;;;;;;;0.80;0.80;;;;;;;3.94;74.42;98485.34;5031504;28;20197;-65
2023/03/15 03:01:27;;;;;;;0.60;0.60;;;;;;;3.90;74.29;98488.81;5031293;28;20198;-65
2023/03/15 03:03:54;;;;;;;0.70;0.70;;;;;;;3.88;74.66;98489.72;5030796;28;20208;-65
2023/03/15 03:06:21;;;;;;;0.60;0.60;;;;;;;3.86;74.94;98487.19;5030205;28;20201;-65
2023/03/15 03:08:48;;;;;;;0.60;0.60;;;;;;;3.86;75.20;98482.13;5031626;28;20665;-65
2023/03/15 03:11:15;;;;;;;0.70;0.70;;;;;;;3.79;75.16;98480.56;5030870;28;20197;-65
2023/03/15 03:13:43;;;;;;;0.70;0.70;;;;;;;3.88;75.40;98484.66;5031075;28;20194;-65
2023/03/15 03:16:09;;;;;;;0.60;0.60;;;;;;;3.86;75.47;98482.13;5037558;28;20201;-65
2023/03/15 03:18:38;;;;;;;0.60;0.60;;;;;;;3.83;75.82;98477.13;5030856;28;20224;-65
2023/03/15 03:21:07;;;;;;;0.50;0.50;;;;;;;3.81;75.79;98483.94;5037621;28;20557;-65
2023/03/15 03:23:36;;;;;;;0.73;0.73;;;;;;;3.79;76.17;98485.63;5030351;28;20570;-65
2023/03/15 03:26:03;;;;;;;0.90;0.90;;;;;;;3.77;76.44;98474.69;5029606;28;20279;-65
2023/03/15 03:28:33;;;;;;;1.30;1.23;;;;;;;3.76;76.39;98480.63;5030470;28;20779;-65
2023/03/15 03:30:59;;;;;;;0.60;0.60;;;;;;;3.69;76.82;98479.06;5029513;28;20311;-65
2023/03/15 03:33:26;;;;;;;0.70;0.70;;;;;;;3.65;77.14;98483.34;5024539;28;20711;-65
2023/03/15 03:36:02;;;;;;;0.70;0.70;;;;;;;3.65;77.53;98483.34;5028948;28;20251;-65
2023/03/15 03:38:29;;;;;;;0.80;0.80;;;;;;;3.51;78.22;98471.78;5027339;28;20578;-65
2023/03/15 03:40:56;;;;;;;0.70;0.70;;;;;;;3.41;79.35;98472.78;5023711;28;20201;-65
2023/03/15 03:43:23;;;;;;;0.60;0.60;;;;;;;3.42;80.14;98464.34;5025791;28;20585;-65
2023/03/15 03:45:49;;;;;;;1.03;1.03;;;;;;;3.42;80.51;98459.28;5025736;28;20213;-65
2023/03/15 03:48:16;;;;;;;0.83;0.83;;;;;;;3.36;81.21;98460.19;5026670;28;20287;-65
2023/03/15 03:50:43;;;;;;;0.70;0.70;;;;;;;3.34;81.78;98459.38;5024678;28;20259;-65
2023/03/15 03:53:11;;;;;;;0.77;0.77;;;;;;;3.21;82.46;98444.41;5024932;28;20221;-65
2023/03/15 03:55:38;;;;;;;0.77;0.77;;;;;;;3.32;82.87;98462.81;5027529;28;20198;-65
2023/03/15 03:58:05;;;;;;;0.80;0.80;;;;;;;3.44;82.95;98468.50;5023484;28;20213;-65
2023/03/15 04:00:32;;;;;;;0.60;0.60;;;;;;;3.49;83.14;98478.59;5026218;28;20248;-65
2023/03/15 04:02:58;;;;;;;0.90;0.90;;;;;;;3.55;82.92;98486.06;5027439;28;20197;-65
2023/03/15 04:05:25;;;;;;;0.80;0.80;;;;;;;3.58;82.90;98480.94;5024950;28;20295;-65
2023/03/15 04:07:52;;;;;;;0.60;0.60;;;;;;;3.60;82.72;98474.16;5027475;28;20665;-65
2023/03/15 04:10:25;;;;;;;0.70;0.70;;;;;;;3.66;83.49;98464.75;5025440;28;20585;-65
2023/03/15 04:12:53;;;;;;;0.70;0.70;;;;;;;3.64;84.26;98455.50;5027011;28;20201;-65
2023/03/15 04:15:21;;;;;;;0.70;0.70;;;;;;;3.61;84.46;98461.47;5024309;28;20739;-65
2023/03/15 04:17:48;;;;;;;0.60;0.60;;;;;;;3.61;85.13;98465.69;5027401;28;20217;-65
2023/03/15 04:20:16;;;;;;;0.90;0.90;;;;;;;3.61;85.33;98465.69;5025615;28;20219;-65
2023/03/15 04:22:48;;;;;;;0.93;0.93;;;;;;;3.58;85.48;98445.47;5025671;28;20201;-65
2023/03/15 04:25:15;;;;;;;0.70;0.70;;;;;;;3.73;86.29;98452.81;5023101;28;20194;-65
2023/03/15 04:27:43;;;;;;;0.70;0.70;;;;;;;3.59;89.43;98447.13;5011955;28;20202;-65
2023/03/15 04:30:11;;;;;;;0.70;0.70;;;;;;;3.43;90.61;98410.25;5021170;28;20197;-65
2023/03/15 04:32:38;;;;;;;1.67;1.57;;;;;;;3.59;90.86;98434.47;5024816;28;20567;-65
2023/03/15 04:35:06;;;;;;;0.80;0.80;;;;;;;3.62;91.37;98440.31;5024699;28;20696;-65
2023/03/15 04:37:32;;;;;;;0.70;0.70;;;;;;;3.58;91.51;98428.59;5022558;28;20221;-65
2023/03/15 04:40:00;;;;;;;0.63;0.63;;;;;;;3.67;91.88;98450.38;5023949;28;20208;-65
2023/03/15 04:42:26;;;;;;;0.70;0.70;;;;;;;3.61;92.56;98430.22;5019651;28;20198;-65
2023/03/15 04:44:55;;;;;;;0.87;0.87;;;;;;;3.76;93.39;98457.81;5022213;28;20209;-65
2023/03/15 04:47:22;;;;;;;0.80;0.80;;;;;;;3.80;94.03;98471.28;5017021;28;20189;-65
2023/03/15 04:49:49;;;;;;;0.70;0.70;;;;;;;3.82;94.70;98475.44;5022691;28;20688;-65
2023/03/15 04:52:16;;;;;;;0.70;0.70;;;;;;;3.76;95.02;98460.34;5025860;28;20224;-65
2023/03/15 04:54:42;;;;;;;0.70;0.70;;;;;;;3.83;95.27;98464.44;5027337;28;20216;-65
2023/03/15 04:57:09;;;;;;;0.73;0.73;;;;;;;3.87;95.75;98461.00;5025315;28;20665;-65
2023/03/15 04:59:36;;;;;;;0.93;0.93;;;;;;;3.83;95.88;98456.84;5026692;28;20201;-65
2023/03/15 05:02:04;;;;;;;0.60;0.60;;;;;;;3.91;95.67;98467.66;5026116;28;20661;-65
2023/03/15 05:04:31;;;;;;;0.70;0.70;;;;;;;3.99;95.15;98465.84;5023543;28;20205;-65
2023/03/15 05:06:58;;;;;;;0.87;0.87;;;;;;;3.97;95.07;98459.97;5014583;28;20197;-65
2023/03/15 05:09:25;;;;;;;0.60;0.60;;;;;;;3.97;95.81;98459.97;5025140;28;20272;-65
2023/03/15 05:11:51;;;;;;;0.50;0.50;;;;;;;4.01;96.69;98460.72;5031509;28;20205;-65
2023/03/15 05:14:18;;;;;;;0.60;0.60;;;;;;;4.02;96.91;98463.25;5029711;28;20255;-65
2023/03/15 05:16:47;;;;;;;0.80;0.80;;;;;;;3.98;97.24;98456.56;5030898;28;20244;-65
2023/03/15 05:19:15;;;;;;;0.90;0.90;;;;;;;4.03;97.49;98464.91;5011980;28;20343;-65
2023/03/15 05:21:41;;;;;;;0.70;0.70;;;;;;;4.06;98.10;98480.06;5008303;28;20288;-66
2023/03/15 05:24:08;;;;;;;0.60;0.60;;;;;;;4.10;98.10;98476.59;5010782;28;20595;-65
2023/03/15 05:26:35;;;;;;;0.87;0.87;;;;;;;4.09;98.42;98462.25;5020431;28;20372;-65
2023/03/15 05:29:02;;;;;;;0.73;0.73;;;;;;;4.14;98.22;98478.22;5027451;28;20202;-65
2023/03/15 05:31:35;;;;;;;0.60;0.60;;;;;;;4.09;98.50;98459.72;5024947;28;20717;-65
2023/03/15 05:34:03;;;;;;;0.60;0.60;;;;;;;4.13;99.15;98463.88;5028077;28;20201;-65
2023/03/15 05:36:31;;;;;;;0.83;0.83;;;;;;;4.18;98.79;98462.09;5022758;28;20202;-65
2023/03/15 05:38:58;;;;;;;0.70;0.70;;;;;;;4.14;99.12;98467.22;5023248;28;20236;-65
2023/03/15 05:41:25;;;;;;;3.23;1.30;;;;;;;4.10;99.89;98456.31;5021843;28;20209;-65
2023/03/15 05:43:52;;;;;;;0.63;0.63;;;;;;;4.14;100.00;98452.84;5026469;28;20205;-65
2023/03/15 05:46:19;;;;;;;0.80;0.80;;;;;;;4.20;100.00;98451.91;5024246;28;20735;-65
2023/03/15 05:48:46;;;;;;;0.83;0.83;;;;;;;4.19;100.00;98450.25;5030296;28;20727;-65
2023/03/15 05:51:13;;;;;;;1.10;1.10;;;;;;;4.20;100.00;98447.66;5028787;28;20602;-65
2023/03/15 05:53:41;;;;;;;0.80;0.80;;;;;;;4.18;100.00;98446.03;5030405;28;20284;-65
2023/03/15 05:56:08;;;;;;;0.70;0.70;;;;;;;4.21;100.00;98445.97;5028963;28;20204;-65
2023/03/15 05:58:35;;;;;;;0.60;0.60;;;;;;;4.23;100.00;98449.31;5028727;28;20278;-65
2023/03/15 06:01:02;;;;;;;0.77;0.77;;;;;;;4.14;100.00;98447.78;5023197;28;20255;-65
2023/03/15 06:03:30;;;;;;;1.47;1.47;;;;;;;4.11;100.00;98462.22;5019667;28;20622;-65
2023/03/15 06:05:57;;;;;;;0.73;0.73;;;;;;;4.19;100.00;98456.16;5024706;28;20263;-65
2023/03/15 06:08:23;;;;;;;0.60;0.60;;;;;;;4.30;100.00;98452.56;5027948;28;20220;-66
2023/03/15 06:10:52;;;;;;;0.67;0.67;;;;;;;4.47;100.00;98445.41;5028854;28;20260;-65
2023/03/15 06:13:19;;;;;;;0.63;0.63;;;;;;;4.75;100.00;98456.66;5026023;28;20197;-69
2023/03/15 06:15:47;;;;;;;0.93;0.93;;;;;;;4.86;100.00;98439.47;5028907;28;20213;-70
2023/03/15 06:18:16;;;;;;;0.60;0.60;;;;;;;5.05;100.00;98452.59;5021262;28;20221;-69
2023/03/15 06:20:43;;;;;;;0.73;0.73;;;;;;;4.92;100.00;98449.50;5016919;28;20213;-64
2023/03/15 06:23:10;;;;;;;0.70;0.70;;;;;;;4.94;100.00;98452.84;5019267;28;20216;-65
2023/03/15 06:25:37;;;;;;;0.93;0.93;;;;;;;4.74;100.00;98409.31;5022477;28;20247;-66
2023/03/15 06:28:05;;;;;;;0.80;0.80;;;;;;;5.03;100.00;98447.56;5025762;28;20220;-66
2023/03/15 06:30:32;;;;;;;0.70;0.70;;;;;;;5.06;100.00;98442.41;5025564;28;20225;-66
2023/03/15 06:32:59;;;;;;;0.50;0.50;;;;;;;5.16;100.00;98448.09;5019878;28;20205;-64
2023/03/15 06:35:26;;;;;;;0.60;0.60;;;;;;;5.10;100.00;98438.94;5017609;28;20223;-64
2023/03/15 06:37:53;;;;;;;0.60;0.60;;;;;;;5.27;100.00;98436.81;5019572;28;20224;-65
2023/03/15 06:40:20;;;;;;;0.60;0.60;;;;;;;5.37;100.00;98446.72;5022762;28;20205;-65
2023/03/15 06:42:47;;;;;;;0.70;0.70;;;;;;;5.45;100.00;98444.84;5027737;28;20535;-65
2023/03/15 06:45:16;;;;;;;0.70;0.70;;;;;;;5.50;100.00;98448.09;5024944;28;20197;-66
2023/03/15 06:47:43;;;;;;;0.70;0.70;;;;;;;5.54;100.00;98450.53;5027203;28;20206;-65
2023/03/15 06:50:11;;;;;;;1.07;1.07;;;;;;;5.58;100.00;98443.69;5020094;28;20201;-65
2023/03/15 06:52:38;;;;;;;0.80;0.80;;;;;;;5.66;100.00;98449.38;5027786;28;20205;-66
2023/03/15 06:55:06;;;;;;;0.60;0.60;;;;;;;5.67;99.83;98456.16;5029060;28;20250;-65
2023/03/15 06:57:33;;;;;;;0.67;0.67;;;;;;;5.82;99.89;98450.66;5026638;28;20284;-65
2023/03/15 06:59:59;;;;;;;1.10;1.10;;;;;;;6.03;98.68;98450.13;5029741;28;20201;-66
2023/03/15 07:02:32;;;;;;;0.80;0.80;;;;;;;6.19;96.90;98456.47;5019952;28;20194;-65
2023/03/15 07:04:59;;;;;;;0.60;0.60;;;;;;;6.41;96.93;98450.75;5026228;28;20449;-59
2023/03/15 07:07:26;;;;;;;0.60;0.60;;;;;;;6.55;95.49;98449.50;5032445;28;20197;-60
2023/03/15 07:09:53;;;;;;;0.70;0.70;;;;;;;6.55;94.24;98448.66;5022865;28;20197;-60
2023/03/15 07:12:20;;;;;;;0.50;0.50;;;;;;;6.68;94.17;98444.88;5023147;28;20506;-59
2023/03/15 07:14:53;;;;;;;3.97;1.00;;;;;;;6.73;93.21;98437.91;5033235;28;20255;-60
2023/03/15 07:17:19;;;;;;;0.50;0.50;;;;;;;6.89;92.96;98439.13;5027923;28;20666;-60
2023/03/15 07:19:48;;;;;;;1.00;1.00;;;;;;;7.01;92.70;98433.63;5033153;28;20800;-59
2023/03/15 07:22:15;;;;;;;0.70;0.70;;;;;;;7.16;91.89;98443.38;5031115;28;20200;-59
2023/03/15 07:24:41;;;;;;;0.40;0.40;;;;;;;7.24;91.89;98445.66;5024754;28;20259;-58
2023/03/15 07:27:11;;;;;;;0.57;0.57;;;;;;;7.35;91.30;98452.09;5025616;28;20206;-59
2023/03/15 07:29:38;;;;;;;1.00;1.00;;;;;;;7.40;90.23;98451.94;5020449;28;20191;-61
2023/03/15 07:32:05;;;;;;;0.60;0.60;;;;;;;7.45;89.75;98441.59;5031984;28;20286;-59
2023/03/15 07:34:32;;;;;;;0.60;0.60;;;;;;;7.62;89.42;98439.31;5033263;28;20700;-59
2023/03/15 07:37:00;;;;;;;0.50;0.50;;;;;;;7.58;88.77;98430.94;5038559;28;20204;-59
2023/03/15 07:39:31;;;;;;;0.60;0.60;;;;;;;7.64;89.20;98430.72;5046517;28;20224;-59
2023/03/15 07:41:58;;;;;;;0.60;0.60;;;;;;;7.78;88.87;98427.72;5043581;28;20207;-59
2023/03/15 07:44:25;;;;;;;0.90;0.90;;;;;;;7.97;86.96;98422.81;5047772;28;20266;-59
2023/03/15 07:46:53;;;;;;;0.50;0.50;;;;;;;8.11;86.49;98426.50;5048368;28;20197;-59
2023/03/15 07:49:20;;;;;;;0.73;0.73;;;;;;;8.28;85.72;98424.22;5053060;28;20656;-61
2023/03/15 07:51:47;;;;;;;0.70;0.70;;;;;;;8.35;84.66;98425.69;5037740;28;20688;-59
2023/03/15 07:54:15;;;;;;;0.60;0.60;;;;;;;8.27;83.91;98411.50;5049286;28;20208;-59
2023/03/15 07:56:42;;;;;;;0.57;0.57;;;;;;;8.38;83.42;98414.50;5036513;28;20208;-59
2023/03/15 07:59:09;;;;;;;0.90;0.90;;;;;;;8.28;83.90;98423.38;5044713;28;20224;-58
2023/03/15 08:01:35;;;;;;;0.63;0.63;;;;;;;8.32;83.27;98427.50;5036267;28;20251;-59
2023/03/15 08:04:02;;;;;;;0.87;0.70;;;;;;;8.40;84.12;98418.66;5036871;28;20248;-59
2023/03/15 08:06:30;;;;;;;0.80;0.80;;;;;;;8.59;83.45;98412.88;5045635;28;20439;-59
2023/03/15 08:08:57;;;;;;;0.60;0.60;;;;;;;8.74;82.48;98417.41;5040224;28;20451;-58
2023/03/15 08:11:25;;;;;;;0.60;0.60;;;;;;;8.57;82.29;98412.09;5032062;28;20256;-59
2023/03/15 08:13:52;;;;;;;0.67;0.67;;;;;;;8.64;82.43;98400.75;5040978;28;20213;-59
2023/03/15 08:16:18;;;;;;;0.70;0.70;;;;;;;8.74;81.89;98402.06;5038863;28;20255;-58
2023/03/15 08:18:45;;;;;;;0.60;0.60;;;;;;;8.64;81.64;98385.44;5038759;28;20221;-60
2023/03/15 08:21:12;;;;;;;0.63;0.63;;;;;;;8.87;81.84;98372.59;5031814;28;20209;-66
2023/03/15 08:23:39;;;;;;;0.53;0.53;;;;;;;9.01;81.69;98370.34;5042255;28;20205;-59
2023/03/15 08:26:06;;;;;;;0.60;0.60;;;;;;;8.94;81.35;98361.25;5037472;28;20737;-59
2023/03/15 08:28:34;;;;;;;0.87;0.87;;;;;;;8.92;81.87;98360.44;5040166;28;20208;-59
2023/03/15 08:31:01;;;;;;;0.70;0.70;;;;;;;9.04;80.98;98362.53;5048385;28;20225;-60
2023/03/15 08:33:29;;;;;;;0.73;0.73;;;;;;;9.10;81.09;98364.84;5035831;28;20209;-58
2023/03/15 08:35:56;;;;;;;0.50;0.50;;;;;;;9.00;81.02;98362.72;5045484;28;20228;-59
2023/03/15 08:38:22;;;;;;;0.60;0.60;;;;;;;8.92;80.39;98345.94;5034929;28;20258;-59
2023/03/15 08:40:49;;;;;;;0.70;0.70;;;;;;;9.12;80.94;98352.81;5048154;28;20204;-59
2023/03/15 08:43:16;;;;;;;0.60;0.60;;;;;;;9.28;80.65;98358.97;5047950;28;20197;-58
2023/03/15 08:45:44;;;;;;;0.70;0.70;;;;;;;9.40;79.61;98355.88;5047238;28;20227;-58
2023/03/15 08:48:13;;;;;;;0.50;0.50;;;;;;;9.67;78.84;98350.50;5049908;28;20325;-59
2023/03/15 08:50:40;;;;;;;0.60;0.60;;;;;;;9.38;78.16;98333.84;5051571;28;20207;-59
2023/03/15 08:53:06;;;;;;;0.50;0.50;;;;;;;9.46;78.74;98352.25;5034368;28;20335;-59
2023/03/15 08:55:33;;;;;;;0.57;0.57;;;;;;;9.32;78.83;98355.38;5040740;28;20197;-58
2023/03/15 08:58:00;;;;;;;0.77;0.77;;;;;;;9.31;78.57;98342.66;5041431;28;20201;-58
2023/03/15 09:00:27;;;;;;;0.50;0.50;;;;;;;9.68;79.92;98352.16;5045559;28;20212;-59
2023/03/15 09:02:56;;;;;;;0.80;0.80;;;;;;;9.92;79.37;98348.53;5051352;28;20208;-59
2023/03/15 09:05:25;;;;;;;0.50;0.50;;;;;;;10.15;76.79;98353.47;5040281;28;20204;-58
2023/03/15 09:07:52;;;;;;;0.90;0.90;;;;;;;10.13;77.52;98344.19;5032792;28;20280;-59
2023/03/15 09:10:20;;;;;;;0.80;0.80;;;;;;;10.31;76.12;98354.44;5031544;28;20197;-59
2023/03/15 09:12:49;;;;;;;0.60;0.60;;;;;;;10.02;75.53;98336.97;5031777;28;20213;-59
2023/03/15 09:15:17;;;;;;;0.50;0.50;;;;;;;10.28;74.40;98343.50;5042175;28;20204;-59
2023/03/15 09:17:44;;;;;;;0.70;0.70;;;;;;;10.41;74.78;98344.59;5048542;28;20229;-59
2023/03/15 09:20:15;;;;;;;0.50;0.50;;;;;;;10.47;73.13;98334.91;5040127;28;20216;-59
2023/03/15 09:22:42;;;;;;;0.47;0.47;;;;;;;10.53;74.31;98329.50;5041513;28;20201;-60
2023/03/15 09:25:09;;;;;;;0.50;0.50;;;;;;;10.82;73.27;98324.75;5041928;28;20197;-61
2023/03/15 09:27:36;;;;;;;0.50;0.50;;;;;;;10.87;70.81;98315.91;5034327;28;20209;-60
2023/03/15 09:30:04;;;;;;;0.50;0.50;;;;;;;11.00;70.20;98334.94;5036171;28;20205;-59
2023/03/15 09:32:34;;;;;;;0.50;0.50;;;;;;;11.08;73.07;98326.88;5031342;28;20692;-59
2023/03/15 09:35:01;;;;;;;0.53;0.53;;;;;;;11.26;71.55;98325.13;5031218;28;20264;-60
2023/03/15 09:37:31;;;;;;;0.83;0.83;;;;;;;11.35;71.10;98340.03;5031492;28;20692;-60
2023/03/15 09:39:58;;;;;;;0.83;0.83;;;;;;;11.13;68.46;98337.72;5031062;28;20586;-60
2023/03/15 09:42:34;;;;;;;0.50;0.50;;;;;;;11.35;67.11;98330.63;5031028;28;20194;-60
2023/03/15 09:45:07;;;;;;;0.50;0.50;;;;;;;11.31;67.21;98334.22;5031094;28;20263;-60
2023/03/15 09:47:42;;;;;;;0.43;0.43;;;;;;;11.50;67.24;98326.47;5031025;28;20213;-60
2023/03/15 09:50:19;;;;;;;0.47;0.47;;;;;;;11.57;67.11;98302.94;5031400;28;20255;-60
2023/03/15 09:52:51;;;;;;;0.50;0.50;;;;;;;11.70;66.66;98317.72;5033448;28;20205;-59
2023/03/15 09:55:22;;;;;;;0.50;0.50;;;;;;;11.85;68.25;98293.84;5019620;28;20208;-59
2023/03/15 09:57:52;;;;;;;0.53;0.53;;;;;;;11.94;64.22;98301.91;5034571;28;20198;-60
2023/03/15 10:00:22;;;;;;;0.60;0.60;;;;;;;12.01;64.08;98289.56;5010903;28;20224;-59
2023/03/15 10:02:57;;;;;;;0.50;0.50;;;;;;;12.06;63.72;98308.09;5034320;28;20202;-60
2023/03/15 10:05:34;;;;;;;0.73;0.73;;;;;;;12.19;64.93;98303.97;5025280;28;20192;-61
2023/03/15 10:08:03;;;;;;;0.80;0.80;;;;;;;12.25;62.55;98301.06;5034461;28;20742;-61
2023/03/15 10:10:36;;;;;;;0.60;0.60;;;;;;;12.28;64.01;98293.19;5034440;28;20208;-59
2023/03/15 10:13:17;;;;;;;0.60;0.60;;;;;;;12.51;65.18;98289.34;5033893;28;20247;-60
2023/03/15 10:15:57;;;;;;;0.80;0.80;;;;;;;12.70;63.61;98289.19;5031013;28;20259;-59
2023/03/15 10:18:34;;;;;;;0.53;0.53;;;;;;;12.80;64.83;98287.72;5034268;28;20200;-60
2023/03/15 10:21:10;;;;;;;0.50;0.50;;;;;;;12.82;63.19;98285.91;5034241;28;20628;-59
2023/03/15 10:23:48;;;;;;;0.70;0.70;;;;;;;12.97;63.20;98287.59;5034198;28;20280;-60
2023/03/15 10:26:19;;;;;;;0.50;0.50;;;;;;;13.06;63.22;98285.31;5033866;28;20205;-59
2023/03/15 10:28:46;;;;;;;0.50;0.50;;;;;;;12.98;61.26;98278.97;5034154;28;20213;-59
2023/03/15 10:31:15;;;;;;;0.50;0.50;;;;;;;12.91;62.83;98277.66;5033818;28;20239;-60
2023/03/15 10:33:44;;;;;;;0.97;0.97;;;;;;;12.92;63.40;98289.63;5034370;28;20585;-59
2023/03/15 10:36:16;;;;;;;0.40;0.40;;;;;;;12.70;62.44;98271.97;5034126;28;20205;-61
2023/03/15 10:38:47;;;;;;;1.13;1.13;;;;;;;12.50;62.52;98257.69;5033430;28;20197;-60
2023/03/15 10:41:41;;;;;;;1.00;1.00;;;;;;;12.48;62.76;98250.97;5032948;28;20209;-60
2023/03/15 10:44:12;;;;;;;0.50;0.50;;;;;;;12.57;62.84;98264.13;5034061;28;20208;-59
2023/03/15 10:46:39;;;;;;;0.50;0.50;;;;;;;12.64;63.13;98262.88;5033771;28;20259;-60
2023/03/15 10:49:16;;;;;;;0.43;0.43;;;;;;;12.44;63.06;98245.16;5033697;28;20688;-60
2023/03/15 10:51:45;;;;;;;0.50;0.50;;;;;;;12.61;62.35;98254.50;5021371;28;20273;-60
2023/03/15 10:54:16;;;;;;;0.50;0.50;;;;;;;12.75;64.50;98258.88;5033482;28;20201;-59
2023/03/15 10:56:47;;;;;;;0.83;0.83;;;;;;;12.82;62.77;98252.47;5033300;28;20578;-60
2023/03/15 10:59:19;;;;;;;0.50;0.50;;;;;;;12.88;63.09;98252.13;5033510;28;20217;-59
2023/03/15 11:01:48;;;;;;;0.50;0.50;;;;;;;12.88;61.22;98252.13;5033525;28;20209;-61
2023/03/15 11:04:18;;;;;;;0.70;0.70;;;;;;;12.68;60.34;98217.25;5032120;28;20197;-59
2023/03/15 11:06:48;;;;;;;1.50;0.90;;;;;;;12.78;60.47;98251.00;5028599;28;20214;-59
2023/03/15 11:09:17;;;;;;;0.50;0.50;;;;;;;12.93;60.70;98242.38;5033124;28;20206;-61
2023/03/15 11:12:09;;;;;;;0.50;0.50;;;;;;;13.05;63.35;98250.22;5032889;28;20210;-61
2023/03/15 11:14:38;;;;;;;0.60;0.60;;;;;;;13.16;60.65;98247.03;5013680;28;20216;-61
2023/03/15 11:17:07;;;;;;;0.50;0.50;;;;;;;13.25;61.76;98241.34;5033020;28;20193;-60
2023/03/15 11:19:41;;;;;;;0.77;0.77;;;;;;;13.31;61.26;98255.63;5033173;28;20275;-59
2023/03/15 11:22:12;;;;;;;0.50;0.50;;;;;;;13.38;59.09;98244.84;5033022;28;20213;-61
2023/03/15 11:24:40;;;;;;;0.50;0.50;;;;;;;13.39;59.32;98249.09;5024265;28;20197;-60
2023/03/15 11:27:12;;;;;;;0.50;0.50;;;;;;;13.51;57.31;98243.19;5032678;28;20205;-60
2023/03/15 11:29:43;;;;;;;0.97;0.97;;;;;;;13.42;58.56;98218.00;5032846;28;20205;-60
2023/03/15 11:32:14;;;;;;;0.50;0.50;;;;;;;13.42;57.52;98212.88;5026512;28;20234;-59
2023/03/15 11:34:46;;;;;;;0.40;0.40;;;;;;;13.49;58.72;98228.78;5030698;28;20198;-60
2023/03/15 11:37:17;;;;;;;0.50;0.50;;;;;;;13.51;58.88;98230.31;5033054;28;20212;-59
2023/03/15 11:39:53;;;;;;;0.43;0.43;;;;;;;13.54;58.39;98237.88;5024947;28;20228;-60
2023/03/15 11:42:25;;;;;;;0.53;0.53;;;;;;;13.57;56.25;98234.31;5032716;28;20205;-59
2023/03/15 11:44:55;;;;;;;0.40;0.40;;;;;;;13.42;56.12;98232.63;5032736;28;20259;-61